FQNP

Details ICAO FQNP (APL)
Name NAMPULA
Region Mozambique
Timezone Africa/Maputo (UTC+2.0)
Plans Departing 11
Arriving 15
Stats Elevation 1,444 ft / 440 m (AMSL)
Location -15.106284° 39.287263°
Runways 2
Magnetic Variation 8.266° W
Sunrise 2017-12-14 02:48:30 UTC / 2017-12-14 04:48:30 Local
Sunset 2017-12-14 15:49:16 UTC / 2017-12-14 17:49:16 Local
Advertisement - Login to hide

Runways

ID Width Length Bearing (true) Bearing (mag) Surface Threshold Offset Overrun Length
05 148 ft / 45 m 6,536 ft / 1,992 m 46.15° 54.42° Asphalt 0 ft / 0 m 0 ft / 0 m
13 148 ft / 45 m 5,137 ft / 1,566 m 119.33° 127.60° Gravel 0 ft / 0 m 0 ft / 0 m
23 148 ft / 45 m 6,536 ft / 1,992 m 226.15° 234.42° Asphalt 0 ft / 0 m 0 ft / 0 m
31 148 ft / 45 m 5,137 ft / 1,566 m 299.32° 307.59° Gravel 0 ft / 0 m 0 ft / 0 m

Map

Weather


0- 5 10 15 20 25 30 35+ Temperature / ° C

Clouds and Precipitation
Forecast for 2017-12-14 00:00 UTC. Updated an hour ago

Ground ~20,000 ft ~40,000 ft Winds

METAR

FQNP 140000Z 06001KT CAVOK 23/22 Q1012

TAF

Not found

Frequencies

Tower 118.10 MHz TWR
Approach 128.80 MHz APP
Warning: Do not use this data for real-world aviation or navigation. No guarantee of current accuracy is given.